sensor_id;sensor_type;location;lat;lon;timestamp;P1;durP1;ratioP1;P2;durP2;ratioP2
74963;SDS011;63521;51.900;4.748;2022-12-11T00:00:47;10.52;;;4.43;;
74963;SDS011;63521;51.900;4.748;2022-12-11T00:03:12;13.65;;;4.60;;
74963;SDS011;63521;51.900;4.748;2022-12-11T00:05:38;13.43;;;4.55;;
74963;SDS011;63521;51.900;4.748;2022-12-11T00:08:04;11.25;;;4.60;;
74963;SDS011;63521;51.900;4.748;2022-12-11T00:10:29;10.75;;;4.30;;
74963;SDS011;63521;51.900;4.748;2022-12-11T00:12:55;11.25;;;4.50;;
74963;SDS011;63521;51.900;4.748;2022-12-11T00:15:20;11.63;;;4.53;;
74963;SDS011;63521;51.900;4.748;2022-12-11T00:17:46;13.40;;;4.95;;
74963;SDS011;63521;51.900;4.748;2022-12-11T00:20:11;10.73;;;4.38;;
74963;SDS011;63521;51.900;4.748;2022-12-11T00:25:02;10.52;;;4.10;;
74963;SDS011;63521;51.900;4.748;2022-12-11T00:27:27;10.93;;;4.13;;
74963;SDS011;63521;51.900;4.748;2022-12-11T00:32:18;9.33;;;3.90;;
74963;SDS011;63521;51.900;4.748;2022-12-11T00:34:43;7.63;;;4.00;;
74963;SDS011;63521;51.900;4.748;2022-12-11T00:37:09;11.43;;;3.88;;
74963;SDS011;63521;51.900;4.748;2022-12-11T00:39:35;12.10;;;4.45;;
74963;SDS011;63521;51.900;4.748;2022-12-11T00:42:01;8.32;;;3.67;;
74963;SDS011;63521;51.900;4.748;2022-12-11T00:44:26;9.80;;;4.60;;
74963;SDS011;63521;51.900;4.748;2022-12-11T00:46:52;11.68;;;4.28;;
74963;SDS011;63521;51.900;4.748;2022-12-11T00:49:17;11.52;;;4.28;;
74963;SDS011;63521;51.900;4.748;2022-12-11T00:51:43;11.00;;;4.43;;
74963;SDS011;63521;51.900;4.748;2022-12-11T00:54:08;11.10;;;4.50;;
74963;SDS011;63521;51.900;4.748;2022-12-11T00:56:33;8.18;;;3.97;;
74963;SDS011;63521;51.900;4.748;2022-12-11T00:58:59;10.93;;;4.32;;
74963;SDS011;63521;51.900;4.748;2022-12-11T01:01:24;10.50;;;4.63;;
74963;SDS011;63521;51.900;4.748;2022-12-11T01:03:50;9.43;;;3.58;;
74963;SDS011;63521;51.900;4.748;2022-12-11T01:06:17;8.80;;;3.70;;
74963;SDS011;63521;51.900;4.748;2022-12-11T01:08:44;11.45;;;4.60;;
74963;SDS011;63521;51.900;4.748;2022-12-11T01:11:11;8.80;;;4.35;;
74963;SDS011;63521;51.900;4.748;2022-12-11T01:13:39;8.10;;;3.47;;
74963;SDS011;63521;51.900;4.748;2022-12-11T01:16:08;11.70;;;4.82;;
74963;SDS011;63521;51.900;4.748;2022-12-11T01:18:35;9.65;;;3.65;;
74963;SDS011;63521;51.900;4.748;2022-12-11T01:21:05;9.65;;;4.28;;
74963;SDS011;63521;51.900;4.748;2022-12-11T01:23:32;10.68;;;4.63;;
74963;SDS011;63521;51.900;4.748;2022-12-11T01:26:03;9.65;;;4.40;;
74963;SDS011;63521;51.900;4.748;2022-12-11T01:28:29;9.18;;;4.43;;
74963;SDS011;63521;51.900;4.748;2022-12-11T01:30:55;11.15;;;4.80;;
74963;SDS011;63521;51.900;4.748;2022-12-11T01:35:45;7.47;;;3.35;;
74963;SDS011;63521;51.900;4.748;2022-12-11T01:38:11;13.52;;;4.85;;
74963;SDS011;63521;51.900;4.748;2022-12-11T01:40:36;9.48;;;3.88;;
74963;SDS011;63521;51.900;4.748;2022-12-11T01:43:02;10.75;;;3.78;;
74963;SDS011;63521;51.900;4.748;2022-12-11T01:45:30;11.60;;;5.15;;
74963;SDS011;63521;51.900;4.748;2022-12-11T01:50:26;10.23;;;4.15;;
74963;SDS011;63521;51.900;4.748;2022-12-11T01:52:52;10.52;;;4.50;;
74963;SDS011;63521;51.900;4.748;2022-12-11T01:55:17;9.63;;;4.30;;
74963;SDS011;63521;51.900;4.748;2022-12-11T01:57:43;9.73;;;4.53;;
74963;SDS011;63521;51.900;4.748;2022-12-11T02:00:09;9.70;;;4.05;;
74963;SDS011;63521;51.900;4.748;2022-12-11T02:02:36;11.52;;;4.43;;
74963;SDS011;63521;51.900;4.748;2022-12-11T02:05:02;11.40;;;4.60;;
74963;SDS011;63521;51.900;4.748;2022-12-11T02:07:29;8.73;;;3.80;;
74963;SDS011;63521;51.900;4.748;2022-12-11T02:10:02;11.73;;;4.70;;
74963;SDS011;63521;51.900;4.748;2022-12-11T02:12:50;9.05;;;3.65;;
74963;SDS011;63521;51.900;4.748;2022-12-11T02:17:55;9.77;;;3.55;;
74963;SDS011;63521;51.900;4.748;2022-12-11T02:20:30;9.45;;;3.80;;
74963;SDS011;63521;51.900;4.748;2022-12-11T02:34:02;8.43;;;3.55;;
74963;SDS011;63521;51.900;4.748;2022-12-11T02:39:08;7.70;;;3.50;;
74963;SDS011;63521;51.900;4.748;2022-12-11T02:41:37;10.52;;;3.88;;
74963;SDS011;63521;51.900;4.748;2022-12-11T02:44:04;9.73;;;4.03;;
74963;SDS011;63521;51.900;4.748;2022-12-11T02:46:30;9.50;;;3.90;;
74963;SDS011;63521;51.900;4.748;2022-12-11T02:48:57;8.80;;;4.05;;
74963;SDS011;63521;51.900;4.748;2022-12-11T02:51:24;10.80;;;4.15;;
74963;SDS011;63521;51.900;4.748;2022-12-11T02:53:53;9.38;;;4.13;;
74963;SDS011;63521;51.900;4.748;2022-12-11T02:56:29;10.90;;;4.30;;
74963;SDS011;63521;51.900;4.748;2022-12-11T02:58:59;10.05;;;3.38;;
74963;SDS011;63521;51.900;4.748;2022-12-11T03:01:28;8.25;;;3.53;;
74963;SDS011;63521;51.900;4.748;2022-12-11T03:03:54;8.10;;;3.58;;
74963;SDS011;63521;51.900;4.748;2022-12-11T03:06:21;8.77;;;3.80;;
74963;SDS011;63521;51.900;4.748;2022-12-11T03:08:48;10.27;;;3.58;;
74963;SDS011;63521;51.900;4.748;2022-12-11T03:11:16;8.68;;;3.70;;
74963;SDS011;63521;51.900;4.748;2022-12-11T03:13:41;6.80;;;3.63;;
74963;SDS011;63521;51.900;4.748;2022-12-11T03:16:15;9.45;;;3.90;;
74963;SDS011;63521;51.900;4.748;2022-12-11T03:24:17;9.13;;;3.40;;
74963;SDS011;63521;51.900;4.748;2022-12-11T03:26:48;6.90;;;3.53;;
74963;SDS011;63521;51.900;4.748;2022-12-11T03:29:19;9.60;;;4.13;;
74963;SDS011;63521;51.900;4.748;2022-12-11T03:34:30;7.80;;;3.90;;
74963;SDS011;63521;51.900;4.748;2022-12-11T03:36:58;9.20;;;3.83;;
74963;SDS011;63521;51.900;4.748;2022-12-11T03:39:31;9.48;;;3.80;;
74963;SDS011;63521;51.900;4.748;2022-12-11T03:41:59;9.10;;;3.65;;
74963;SDS011;63521;51.900;4.748;2022-12-11T03:44:25;9.15;;;3.60;;
74963;SDS011;63521;51.900;4.748;2022-12-11T03:46:51;9.73;;;3.58;;
74963;SDS011;63521;51.900;4.748;2022-12-11T03:49:22;7.63;;;3.35;;
74963;SDS011;63521;51.900;4.748;2022-12-11T03:54:15;7.65;;;3.42;;
74963;SDS011;63521;51.900;4.748;2022-12-11T03:56:41;8.88;;;4.00;;
74963;SDS011;63521;51.900;4.748;2022-12-11T03:59:08;9.10;;;3.97;;
74963;SDS011;63521;51.900;4.748;2022-12-11T04:01:33;7.80;;;3.25;;
74963;SDS011;63521;51.900;4.748;2022-12-11T04:03:59;8.68;;;3.70;;
74963;SDS011;63521;51.900;4.748;2022-12-11T04:06:24;8.35;;;3.60;;
74963;SDS011;63521;51.900;4.748;2022-12-11T04:11:15;8.63;;;3.43;;
74963;SDS011;63521;51.900;4.748;2022-12-11T04:13:59;6.45;;;3.22;;
74963;SDS011;63521;51.900;4.748;2022-12-11T04:16:54;8.68;;;3.53;;
74963;SDS011;63521;51.900;4.748;2022-12-11T04:19:19;8.00;;;3.13;;
74963;SDS011;63521;51.900;4.748;2022-12-11T04:22:04;7.65;;;3.15;;
74963;SDS011;63521;51.900;4.748;2022-12-11T04:25:02;8.20;;;3.65;;
74963;SDS011;63521;51.900;4.748;2022-12-11T04:27:29;9.05;;;3.42;;
74963;SDS011;63521;51.900;4.748;2022-12-11T04:32:42;7.35;;;3.42;;
74963;SDS011;63521;51.900;4.748;2022-12-11T04:35:07;7.72;;;3.28;;
74963;SDS011;63521;51.900;4.748;2022-12-11T04:37:33;9.82;;;3.47;;
74963;SDS011;63521;51.900;4.748;2022-12-11T04:39:59;8.98;;;3.78;;
74963;SDS011;63521;51.900;4.748;2022-12-11T04:42:24;6.97;;;3.70;;
74963;SDS011;63521;51.900;4.748;2022-12-11T04:44:50;8.82;;;3.78;;
74963;SDS011;63521;51.900;4.748;2022-12-11T04:47:15;7.97;;;3.25;;
74963;SDS011;63521;51.900;4.748;2022-12-11T04:49:41;6.85;;;3.15;;
74963;SDS011;63521;51.900;4.748;2022-12-11T04:52:06;6.93;;;3.08;;
74963;SDS011;63521;51.900;4.748;2022-12-11T04:56:57;6.70;;;2.72;;
74963;SDS011;63521;51.900;4.748;2022-12-11T04:59:22;6.97;;;3.20;;
74963;SDS011;63521;51.900;4.748;2022-12-11T05:01:48;6.53;;;3.17;;
74963;SDS011;63521;51.900;4.748;2022-12-11T05:04:13;7.10;;;3.40;;
74963;SDS011;63521;51.900;4.748;2022-12-11T05:06:38;9.18;;;3.60;;
74963;SDS011;63521;51.900;4.748;2022-12-11T05:09:04;6.97;;;3.03;;
74963;SDS011;63521;51.900;4.748;2022-12-11T05:11:29;6.70;;;2.95;;
74963;SDS011;63521;51.900;4.748;2022-12-11T05:13:55;6.53;;;3.15;;
74963;SDS011;63521;51.900;4.748;2022-12-11T05:16:20;7.18;;;3.30;;
74963;SDS011;63521;51.900;4.748;2022-12-11T05:18:45;6.32;;;3.47;;
74963;SDS011;63521;51.900;4.748;2022-12-11T05:21:14;6.30;;;3.22;;
74963;SDS011;63521;51.900;4.748;2022-12-11T05:23:40;6.80;;;3.13;;
74963;SDS011;63521;51.900;4.748;2022-12-11T05:26:07;7.20;;;3.10;;
74963;SDS011;63521;51.900;4.748;2022-12-11T05:28:35;6.70;;;3.22;;
74963;SDS011;63521;51.900;4.748;2022-12-11T05:31:03;5.65;;;2.70;;
74963;SDS011;63521;51.900;4.748;2022-12-11T05:33:30;7.43;;;2.90;;
74963;SDS011;63521;51.900;4.748;2022-12-11T05:35:55;6.50;;;2.67;;
74963;SDS011;63521;51.900;4.748;2022-12-11T05:38:21;6.20;;;2.92;;
74963;SDS011;63521;51.900;4.748;2022-12-11T05:40:57;5.60;;;2.88;;
74963;SDS011;63521;51.900;4.748;2022-12-11T05:43:24;6.72;;;2.90;;
74963;SDS011;63521;51.900;4.748;2022-12-11T05:45:51;6.95;;;2.88;;
74963;SDS011;63521;51.900;4.748;2022-12-11T05:48:16;6.50;;;3.03;;
74963;SDS011;63521;51.900;4.748;2022-12-11T05:50:42;7.63;;;3.10;;
74963;SDS011;63521;51.900;4.748;2022-12-11T05:53:07;6.85;;;2.85;;
74963;SDS011;63521;51.900;4.748;2022-12-11T05:57:58;7.43;;;3.08;;
74963;SDS011;63521;51.900;4.748;2022-12-11T06:02:49;4.83;;;2.13;;
74963;SDS011;63521;51.900;4.748;2022-12-11T06:05:14;6.15;;;2.90;;
74963;SDS011;63521;51.900;4.748;2022-12-11T06:07:40;7.65;;;2.85;;
74963;SDS011;63521;51.900;4.748;2022-12-11T06:10:05;6.20;;;3.13;;
74963;SDS011;63521;51.900;4.748;2022-12-11T06:14:56;6.47;;;2.92;;
74963;SDS011;63521;51.900;4.748;2022-12-11T06:19:47;8.03;;;3.20;;
74963;SDS011;63521;51.900;4.748;2022-12-11T06:24:38;6.47;;;2.73;;
74963;SDS011;63521;51.900;4.748;2022-12-11T06:27:03;6.88;;;2.47;;
74963;SDS011;63521;51.900;4.748;2022-12-11T06:29:29;6.38;;;2.75;;
74963;SDS011;63521;51.900;4.748;2022-12-11T06:31:54;6.47;;;2.70;;
74963;SDS011;63521;51.900;4.748;2022-12-11T06:34:19;6.00;;;2.70;;
74963;SDS011;63521;51.900;4.748;2022-12-11T06:36:46;7.20;;;3.17;;
74963;SDS011;63521;51.900;4.748;2022-12-11T06:44:20;8.98;;;3.53;;
74963;SDS011;63521;51.900;4.748;2022-12-11T06:48:18;5.68;;;2.42;;
74963;SDS011;63521;51.900;4.748;2022-12-11T06:52:37;5.68;;;2.75;;
74963;SDS011;63521;51.900;4.748;2022-12-11T06:55:22;5.88;;;2.80;;
74963;SDS011;63521;51.900;4.748;2022-12-11T06:57:48;6.13;;;2.88;;
74963;SDS011;63521;51.900;4.748;2022-12-11T07:00:13;7.72;;;3.00;;
74963;SDS011;63521;51.900;4.748;2022-12-11T07:02:39;6.75;;;3.00;;
74963;SDS011;63521;51.900;4.748;2022-12-11T07:07:30;5.88;;;2.63;;
74963;SDS011;63521;51.900;4.748;2022-12-11T07:12:20;4.93;;;2.20;;
74963;SDS011;63521;51.900;4.748;2022-12-11T07:17:11;5.07;;;2.30;;
74963;SDS011;63521;51.900;4.748;2022-12-11T07:22:02;6.30;;;3.03;;
74963;SDS011;63521;51.900;4.748;2022-12-11T07:26:52;6.53;;;2.60;;
74963;SDS011;63521;51.900;4.748;2022-12-11T07:31:43;6.03;;;2.45;;
74963;SDS011;63521;51.900;4.748;2022-12-11T07:36:37;5.63;;;2.58;;
74963;SDS011;63521;51.900;4.748;2022-12-11T07:39:03;5.40;;;2.40;;
74963;SDS011;63521;51.900;4.748;2022-12-11T07:43:55;4.90;;;2.75;;
74963;SDS011;63521;51.900;4.748;2022-12-11T07:48:47;5.45;;;2.67;;
74963;SDS011;63521;51.900;4.748;2022-12-11T07:51:18;7.53;;;3.40;;
74963;SDS011;63521;51.900;4.748;2022-12-11T07:56:18;6.30;;;2.78;;
74963;SDS011;63521;51.900;4.748;2022-12-11T07:58:44;6.28;;;2.75;;
74963;SDS011;63521;51.900;4.748;2022-12-11T08:01:17;5.85;;;2.45;;
74963;SDS011;63521;51.900;4.748;2022-12-11T08:03:44;5.32;;;2.35;;
74963;SDS011;63521;51.900;4.748;2022-12-11T08:06:09;6.75;;;2.55;;
74963;SDS011;63521;51.900;4.748;2022-12-11T08:08:35;6.72;;;2.65;;
74963;SDS011;63521;51.900;4.748;2022-12-11T08:11:01;5.60;;;2.47;;
74963;SDS011;63521;51.900;4.748;2022-12-11T08:13:27;5.88;;;2.80;;
74963;SDS011;63521;51.900;4.748;2022-12-11T08:15:53;6.60;;;2.33;;
74963;SDS011;63521;51.900;4.748;2022-12-11T08:18:18;6.55;;;2.78;;
74963;SDS011;63521;51.900;4.748;2022-12-11T08:23:09;5.43;;;2.67;;
74963;SDS011;63521;51.900;4.748;2022-12-11T08:25:34;4.97;;;2.42;;
74963;SDS011;63521;51.900;4.748;2022-12-11T08:28:00;4.95;;;2.60;;
74963;SDS011;63521;51.900;4.748;2022-12-11T08:30:25;7.65;;;3.10;;
74963;SDS011;63521;51.900;4.748;2022-12-11T08:32:51;7.30;;;3.08;;
74963;SDS011;63521;51.900;4.748;2022-12-11T08:35:16;5.30;;;2.50;;
74963;SDS011;63521;51.900;4.748;2022-12-11T08:37:41;6.22;;;3.17;;
74963;SDS011;63521;51.900;4.748;2022-12-11T08:40:07;6.10;;;2.65;;
74963;SDS011;63521;51.900;4.748;2022-12-11T08:42:34;6.80;;;2.78;;
74963;SDS011;63521;51.900;4.748;2022-12-11T08:45:00;5.57;;;2.50;;
74963;SDS011;63521;51.900;4.748;2022-12-11T08:47:25;7.43;;;3.15;;
74963;SDS011;63521;51.900;4.748;2022-12-11T08:49:51;6.10;;;3.03;;
74963;SDS011;63521;51.900;4.748;2022-12-11T08:52:17;5.75;;;2.70;;
74963;SDS011;63521;51.900;4.748;2022-12-11T08:54:42;7.38;;;3.03;;
74963;SDS011;63521;51.900;4.748;2022-12-11T08:59:33;5.55;;;2.58;;
74963;SDS011;63521;51.900;4.748;2022-12-11T09:01:58;7.75;;;3.22;;
74963;SDS011;63521;51.900;4.748;2022-12-11T09:06:49;6.07;;;2.65;;
74963;SDS011;63521;51.900;4.748;2022-12-11T09:09:14;6.18;;;2.75;;
74963;SDS011;63521;51.900;4.748;2022-12-11T09:11:40;6.57;;;2.50;;
74963;SDS011;63521;51.900;4.748;2022-12-11T09:14:06;7.82;;;2.45;;
74963;SDS011;63521;51.900;4.748;2022-12-11T09:18:58;5.20;;;2.38;;
74963;SDS011;63521;51.900;4.748;2022-12-11T09:21:24;6.22;;;3.05;;
74963;SDS011;63521;51.900;4.748;2022-12-11T09:23:52;6.10;;;2.80;;
74963;SDS011;63521;51.900;4.748;2022-12-11T09:26:21;6.22;;;2.80;;
74963;SDS011;63521;51.900;4.748;2022-12-11T09:28:47;5.32;;;2.35;;
74963;SDS011;63521;51.900;4.748;2022-12-11T09:31:19;6.10;;;2.65;;
74963;SDS011;63521;51.900;4.748;2022-12-11T09:33:47;5.80;;;2.53;;
74963;SDS011;63521;51.900;4.748;2022-12-11T09:36:13;5.88;;;2.42;;
74963;SDS011;63521;51.900;4.748;2022-12-11T09:41:22;5.97;;;2.57;;
74963;SDS011;63521;51.900;4.748;2022-12-11T09:46:27;7.13;;;2.80;;
74963;SDS011;63521;51.900;4.748;2022-12-11T09:48:52;5.80;;;2.65;;
74963;SDS011;63521;51.900;4.748;2022-12-11T09:51:35;8.50;;;2.80;;
74963;SDS011;63521;51.900;4.748;2022-12-11T09:54:04;6.53;;;2.75;;
74963;SDS011;63521;51.900;4.748;2022-12-11T09:56:34;6.13;;;2.67;;
74963;SDS011;63521;51.900;4.748;2022-12-11T09:59:26;5.72;;;2.65;;
74963;SDS011;63521;51.900;4.748;2022-12-11T10:07:19;7.20;;;2.92;;
74963;SDS011;63521;51.900;4.748;2022-12-11T10:13:07;7.68;;;2.90;;
74963;SDS011;63521;51.900;4.748;2022-12-11T10:18:16;6.20;;;2.78;;
74963;SDS011;63521;51.900;4.748;2022-12-11T10:20:43;7.50;;;3.20;;
74963;SDS011;63521;51.900;4.748;2022-12-11T10:23:17;6.88;;;3.58;;
74963;SDS011;63521;51.900;4.748;2022-12-11T10:25:56;7.28;;;2.95;;
74963;SDS011;63521;51.900;4.748;2022-12-11T10:28:30;7.60;;;2.78;;
74963;SDS011;63521;51.900;4.748;2022-12-11T10:33:40;6.00;;;2.70;;
74963;SDS011;63521;51.900;4.748;2022-12-11T10:36:15;7.75;;;3.60;;
74963;SDS011;63521;51.900;4.748;2022-12-11T10:38:43;8.25;;;3.30;;
74963;SDS011;63521;51.900;4.748;2022-12-11T10:41:13;6.00;;;3.70;;
74963;SDS011;63521;51.900;4.748;2022-12-11T10:43:46;5.53;;;2.90;;
74963;SDS011;63521;51.900;4.748;2022-12-11T10:46:14;5.72;;;2.78;;
74963;SDS011;63521;51.900;4.748;2022-12-11T10:49:19;5.95;;;2.50;;
74963;SDS011;63521;51.900;4.748;2022-12-11T10:51:44;8.48;;;3.75;;
74963;SDS011;63521;51.900;4.748;2022-12-11T10:57:30;9.63;;;3.03;;
74963;SDS011;63521;51.900;4.748;2022-12-11T10:59:57;8.75;;;3.65;;
74963;SDS011;63521;51.900;4.748;2022-12-11T11:04:56;6.20;;;2.80;;
74963;SDS011;63521;51.900;4.748;2022-12-11T11:07:27;8.18;;;3.28;;
74963;SDS011;63521;51.900;4.748;2022-12-11T11:12:38;8.40;;;3.53;;
74963;SDS011;63521;51.900;4.748;2022-12-11T11:17:39;8.53;;;3.30;;
74963;SDS011;63521;51.900;4.748;2022-12-11T11:20:11;10.48;;;3.70;;
74963;SDS011;63521;51.900;4.748;2022-12-11T11:22:39;6.50;;;2.97;;
74963;SDS011;63521;51.900;4.748;2022-12-11T11:25:15;6.68;;;3.30;;
74963;SDS011;63521;51.900;4.748;2022-12-11T11:28:04;9.00;;;3.70;;
74963;SDS011;63521;51.900;4.748;2022-12-11T11:30:39;7.78;;;3.28;;
74963;SDS011;63521;51.900;4.748;2022-12-11T11:33:17;8.02;;;3.45;;
74963;SDS011;63521;51.900;4.748;2022-12-11T11:35:54;9.65;;;3.67;;
74963;SDS011;63521;51.900;4.748;2022-12-11T11:38:21;8.45;;;3.60;;
74963;SDS011;63521;51.900;4.748;2022-12-11T11:40:50;9.88;;;3.20;;
74963;SDS011;63521;51.900;4.748;2022-12-11T11:43:43;10.27;;;3.83;;
74963;SDS011;63521;51.900;4.748;2022-12-11T11:48:47;10.40;;;3.78;;
74963;SDS011;63521;51.900;4.748;2022-12-11T11:51:29;8.20;;;3.17;;
74963;SDS011;63521;51.900;4.748;2022-12-11T11:53:59;12.40;;;3.78;;
74963;SDS011;63521;51.900;4.748;2022-12-11T11:56:33;8.00;;;3.22;;
74963;SDS011;63521;51.900;4.748;2022-12-11T12:01:44;10.27;;;3.70;;
74963;SDS011;63521;51.900;4.748;2022-12-11T12:04:10;8.45;;;3.55;;
74963;SDS011;63521;51.900;4.748;2022-12-11T12:14:57;7.20;;;3.45;;
74963;SDS011;63521;51.900;4.748;2022-12-11T12:17:44;14.30;;;4.05;;
74963;SDS011;63521;51.900;4.748;2022-12-11T12:20:16;8.88;;;3.80;;
74963;SDS011;63521;51.900;4.748;2022-12-11T12:30:14;8.93;;;3.70;;
74963;SDS011;63521;51.900;4.748;2022-12-11T12:38:33;10.45;;;3.83;;
74963;SDS011;63521;51.900;4.748;2022-12-11T12:41:13;8.57;;;3.38;;
74963;SDS011;63521;51.900;4.748;2022-12-11T12:49:04;11.18;;;3.78;;
74963;SDS011;63521;51.900;4.748;2022-12-11T12:51:37;8.18;;;3.42;;
74963;SDS011;63521;51.900;4.748;2022-12-11T12:54:03;8.13;;;3.60;;
74963;SDS011;63521;51.900;4.748;2022-12-11T12:56:30;9.60;;;3.67;;
74963;SDS011;63521;51.900;4.748;2022-12-11T12:58:57;9.23;;;3.45;;
74963;SDS011;63521;51.900;4.748;2022-12-11T13:01:23;8.90;;;3.88;;
74963;SDS011;63521;51.900;4.748;2022-12-11T13:03:50;9.75;;;3.65;;
74963;SDS011;63521;51.900;4.748;2022-12-11T13:09:14;9.18;;;3.80;;
74963;SDS011;63521;51.900;4.748;2022-12-11T13:11:41;9.85;;;3.95;;
74963;SDS011;63521;51.900;4.748;2022-12-11T13:16:42;9.43;;;3.78;;
74963;SDS011;63521;51.900;4.748;2022-12-11T13:24:30;7.82;;;3.35;;
74963;SDS011;63521;51.900;4.748;2022-12-11T13:27:07;9.30;;;3.25;;
74963;SDS011;63521;51.900;4.748;2022-12-11T13:29:35;7.18;;;3.33;;
74963;SDS011;63521;51.900;4.748;2022-12-11T13:34:34;8.52;;;3.42;;
74963;SDS011;63521;51.900;4.748;2022-12-11T13:37:01;9.13;;;3.60;;
74963;SDS011;63521;51.900;4.748;2022-12-11T13:39:34;7.47;;;3.22;;
74963;SDS011;63521;51.900;4.748;2022-12-11T13:42:06;8.45;;;3.88;;
74963;SDS011;63521;51.900;4.748;2022-12-11T13:44:34;9.75;;;3.47;;
74963;SDS011;63521;51.900;4.748;2022-12-11T13:47:03;8.65;;;3.22;;
74963;SDS011;63521;51.900;4.748;2022-12-11T13:49:34;9.70;;;3.45;;
74963;SDS011;63521;51.900;4.748;2022-12-11T13:52:01;7.93;;;3.22;;
74963;SDS011;63521;51.900;4.748;2022-12-11T13:54:28;7.65;;;3.22;;
74963;SDS011;63521;51.900;4.748;2022-12-11T13:56:56;6.05;;;2.92;;
74963;SDS011;63521;51.900;4.748;2022-12-11T13:59:24;7.97;;;3.55;;
74963;SDS011;63521;51.900;4.748;2022-12-11T14:01:56;8.38;;;3.72;;
74963;SDS011;63521;51.900;4.748;2022-12-11T14:04:24;8.07;;;3.30;;
74963;SDS011;63521;51.900;4.748;2022-12-11T14:06:50;7.15;;;3.05;;
74963;SDS011;63521;51.900;4.748;2022-12-11T14:09:16;8.13;;;3.15;;
74963;SDS011;63521;51.900;4.748;2022-12-11T14:11:46;9.32;;;3.25;;
74963;SDS011;63521;51.900;4.748;2022-12-11T14:14:31;6.68;;;3.08;;
74963;SDS011;63521;51.900;4.748;2022-12-11T14:17:03;8.55;;;3.42;;
74963;SDS011;63521;51.900;4.748;2022-12-11T14:19:29;12.25;;;3.67;;
74963;SDS011;63521;51.900;4.748;2022-12-11T14:21:59;10.95;;;4.18;;
74963;SDS011;63521;51.900;4.748;2022-12-11T14:24:26;9.13;;;3.47;;
74963;SDS011;63521;51.900;4.748;2022-12-11T14:26:52;7.68;;;3.45;;
74963;SDS011;63521;51.900;4.748;2022-12-11T14:29:25;8.50;;;3.63;;
74963;SDS011;63521;51.900;4.748;2022-12-11T14:31:52;7.40;;;3.00;;
74963;SDS011;63521;51.900;4.748;2022-12-11T14:34:19;8.82;;;3.95;;
74963;SDS011;63521;51.900;4.748;2022-12-11T14:36:49;9.15;;;3.35;;
74963;SDS011;63521;51.900;4.748;2022-12-11T14:39:16;7.50;;;3.33;;
74963;SDS011;63521;51.900;4.748;2022-12-11T14:41:46;7.75;;;3.53;;
74963;SDS011;63521;51.900;4.748;2022-12-11T14:44:15;7.57;;;3.67;;
74963;SDS011;63521;51.900;4.748;2022-12-11T14:46:43;7.55;;;3.90;;
74963;SDS011;63521;51.900;4.748;2022-12-11T14:49:23;6.00;;;3.10;;
74963;SDS011;63521;51.900;4.748;2022-12-11T14:51:53;6.75;;;3.17;;
74963;SDS011;63521;51.900;4.748;2022-12-11T14:54:27;8.52;;;3.42;;
74963;SDS011;63521;51.900;4.748;2022-12-11T14:56:56;8.48;;;3.45;;
74963;SDS011;63521;51.900;4.748;2022-12-11T14:59:23;7.88;;;3.25;;
74963;SDS011;63521;51.900;4.748;2022-12-11T15:01:56;8.90;;;3.83;;
74963;SDS011;63521;51.900;4.748;2022-12-11T15:04:29;8.13;;;3.45;;
74963;SDS011;63521;51.900;4.748;2022-12-11T15:06:57;6.90;;;3.47;;
74963;SDS011;63521;51.900;4.748;2022-12-11T15:11:58;9.60;;;3.03;;
74963;SDS011;63521;51.900;4.748;2022-12-11T15:14:33;7.32;;;3.25;;
74963;SDS011;63521;51.900;4.748;2022-12-11T15:16:59;9.15;;;3.70;;
74963;SDS011;63521;51.900;4.748;2022-12-11T15:21:54;7.65;;;3.30;;
74963;SDS011;63521;51.900;4.748;2022-12-11T15:24:27;8.02;;;3.55;;
74963;SDS011;63521;51.900;4.748;2022-12-11T15:26:58;8.30;;;3.63;;
74963;SDS011;63521;51.900;4.748;2022-12-11T15:29:38;7.68;;;3.47;;
74963;SDS011;63521;51.900;4.748;2022-12-11T15:34:42;6.05;;;2.90;;
74963;SDS011;63521;51.900;4.748;2022-12-11T15:37:32;7.90;;;3.55;;
74963;SDS011;63521;51.900;4.748;2022-12-11T15:40:00;10.70;;;4.03;;
74963;SDS011;63521;51.900;4.748;2022-12-11T15:42:34;8.43;;;3.85;;
74963;SDS011;63521;51.900;4.748;2022-12-11T15:45:00;7.88;;;3.47;;
74963;SDS011;63521;51.900;4.748;2022-12-11T15:47:28;8.30;;;3.33;;
74963;SDS011;63521;51.900;4.748;2022-12-11T15:49:58;8.40;;;3.75;;
74963;SDS011;63521;51.900;4.748;2022-12-11T15:52:46;7.40;;;3.00;;
74963;SDS011;63521;51.900;4.748;2022-12-11T15:55:12;10.52;;;4.00;;
74963;SDS011;63521;51.900;4.748;2022-12-11T16:00:04;8.18;;;3.03;;
74963;SDS011;63521;51.900;4.748;2022-12-11T16:02:30;6.65;;;3.10;;
74963;SDS011;63521;51.900;4.748;2022-12-11T16:07:22;7.00;;;3.05;;
74963;SDS011;63521;51.900;4.748;2022-12-11T16:09:49;6.82;;;2.85;;
74963;SDS011;63521;51.900;4.748;2022-12-11T16:14:40;10.17;;;3.63;;
74963;SDS011;63521;51.900;4.748;2022-12-11T16:17:07;10.45;;;2.97;;
74963;SDS011;63521;51.900;4.748;2022-12-11T16:19:34;7.32;;;3.58;;
74963;SDS011;63521;51.900;4.748;2022-12-11T16:22:00;7.50;;;3.30;;
74963;SDS011;63521;51.900;4.748;2022-12-11T16:24:25;6.80;;;3.00;;
74963;SDS011;63521;51.900;4.748;2022-12-11T16:29:16;6.45;;;3.15;;
74963;SDS011;63521;51.900;4.748;2022-12-11T16:31:42;6.43;;;3.38;;
74963;SDS011;63521;51.900;4.748;2022-12-11T16:34:07;8.82;;;3.42;;
74963;SDS011;63521;51.900;4.748;2022-12-11T16:38:58;6.43;;;2.70;;
74963;SDS011;63521;51.900;4.748;2022-12-11T16:43:48;5.95;;;2.72;;
74963;SDS011;63521;51.900;4.748;2022-12-11T16:46:16;7.70;;;3.63;;
74963;SDS011;63521;51.900;4.748;2022-12-11T16:48:43;8.13;;;3.53;;
74963;SDS011;63521;51.900;4.748;2022-12-11T16:51:09;5.57;;;2.78;;
74963;SDS011;63521;51.900;4.748;2022-12-11T16:53:34;6.50;;;2.95;;
74963;SDS011;63521;51.900;4.748;2022-12-11T16:58:26;8.10;;;3.00;;
74963;SDS011;63521;51.900;4.748;2022-12-11T17:00:51;6.72;;;2.80;;
74963;SDS011;63521;51.900;4.748;2022-12-11T17:05:43;5.93;;;3.42;;
74963;SDS011;63521;51.900;4.748;2022-12-11T17:08:09;7.97;;;3.38;;
74963;SDS011;63521;51.900;4.748;2022-12-11T17:10:38;8.43;;;3.17;;
74963;SDS011;63521;51.900;4.748;2022-12-11T17:13:05;7.03;;;3.35;;
74963;SDS011;63521;51.900;4.748;2022-12-11T17:15:30;9.05;;;3.42;;
74963;SDS011;63521;51.900;4.748;2022-12-11T17:20:21;6.13;;;2.50;;
74963;SDS011;63521;51.900;4.748;2022-12-11T17:25:11;6.93;;;2.87;;
74963;SDS011;63521;51.900;4.748;2022-12-11T17:27:40;8.32;;;3.45;;
74963;SDS011;63521;51.900;4.748;2022-12-11T17:32:31;6.80;;;2.75;;
74963;SDS011;63521;51.900;4.748;2022-12-11T17:37:22;8.30;;;2.97;;
74963;SDS011;63521;51.900;4.748;2022-12-11T17:42:12;6.18;;;2.80;;
74963;SDS011;63521;51.900;4.748;2022-12-11T17:44:38;6.68;;;3.05;;
74963;SDS011;63521;51.900;4.748;2022-12-11T17:49:29;5.65;;;2.47;;
74963;SDS011;63521;51.900;4.748;2022-12-11T17:54:21;7.82;;;3.47;;
74963;SDS011;63521;51.900;4.748;2022-12-11T17:56:46;6.50;;;2.67;;
74963;SDS011;63521;51.900;4.748;2022-12-11T17:59:13;7.45;;;2.78;;
74963;SDS011;63521;51.900;4.748;2022-12-11T18:04:03;5.97;;;2.40;;
74963;SDS011;63521;51.900;4.748;2022-12-11T18:08:54;7.47;;;3.25;;
74963;SDS011;63521;51.900;4.748;2022-12-11T18:11:20;7.57;;;3.58;;
74963;SDS011;63521;51.900;4.748;2022-12-11T18:16:22;7.00;;;3.05;;
74963;SDS011;63521;51.900;4.748;2022-12-11T18:18:49;6.57;;;3.20;;
74963;SDS011;63521;51.900;4.748;2022-12-11T18:21:17;7.20;;;3.33;;
74963;SDS011;63521;51.900;4.748;2022-12-11T18:23:45;7.97;;;3.55;;
74963;SDS011;63521;51.900;4.748;2022-12-11T18:26:12;7.00;;;3.25;;
74963;SDS011;63521;51.900;4.748;2022-12-11T18:28:38;6.95;;;3.42;;
74963;SDS011;63521;51.900;4.748;2022-12-11T18:31:05;6.80;;;2.65;;
74963;SDS011;63521;51.900;4.748;2022-12-11T18:33:31;7.28;;;3.30;;
74963;SDS011;63521;51.900;4.748;2022-12-11T18:36:00;5.82;;;2.67;;
74963;SDS011;63521;51.900;4.748;2022-12-11T18:38:25;8.75;;;3.35;;